sensor_id;sensor_type;location;lat;lon;timestamp;temperature;humidity
5796;DHT22;2924;51.458;7.046;2023-04-06T00:00:18;1.20;99.90
5796;DHT22;2924;51.458;7.046;2023-04-06T00:02:44;1.20;99.90
5796;DHT22;2924;51.458;7.046;2023-04-06T00:05:10;1.40;99.90
5796;DHT22;2924;51.458;7.046;2023-04-06T00:07:35;1.30;99.90
5796;DHT22;2924;51.458;7.046;2023-04-06T00:10:01;1.30;99.90
5796;DHT22;2924;51.458;7.046;2023-04-06T00:12:27;1.20;99.90
5796;DHT22;2924;51.458;7.046;2023-04-06T00:14:53;1.20;99.90
5796;DHT22;2924;51.458;7.046;2023-04-06T00:17:18;1.30;99.90
5796;DHT22;2924;51.458;7.046;2023-04-06T00:19:44;1.30;99.90
5796;DHT22;2924;51.458;7.046;2023-04-06T00:22:09;1.20;99.90
5796;DHT22;2924;51.458;7.046;2023-04-06T00:24:35;1.20;99.90
5796;DHT22;2924;51.458;7.046;2023-04-06T00:27:00;1.10;99.90
5796;DHT22;2924;51.458;7.046;2023-04-06T00:29:26;1.00;99.90
5796;DHT22;2924;51.458;7.046;2023-04-06T00:31:52;1.10;99.90
5796;DHT22;2924;51.458;7.046;2023-04-06T00:34:17;1.00;99.90
5796;DHT22;2924;51.458;7.046;2023-04-06T00:36:43;1.00;99.90
5796;DHT22;2924;51.458;7.046;2023-04-06T00:39:09;0.80;99.90
5796;DHT22;2924;51.458;7.046;2023-04-06T00:41:35;0.80;99.90
5796;DHT22;2924;51.458;7.046;2023-04-06T00:44:00;0.80;99.90
5796;DHT22;2924;51.458;7.046;2023-04-06T00:46:26;0.90;99.90
5796;DHT22;2924;51.458;7.046;2023-04-06T00:48:51;0.70;99.90
5796;DHT22;2924;51.458;7.046;2023-04-06T00:51:17;0.60;99.90
5796;DHT22;2924;51.458;7.046;2023-04-06T00:53:42;0.60;99.90
5796;DHT22;2924;51.458;7.046;2023-04-06T00:56:08;0.50;99.90
5796;DHT22;2924;51.458;7.046;2023-04-06T00:58:35;0.50;99.90
5796;DHT22;2924;51.458;7.046;2023-04-06T01:01:04;0.60;99.90
5796;DHT22;2924;51.458;7.046;2023-04-06T01:03:29;0.60;99.90
5796;DHT22;2924;51.458;7.046;2023-04-06T01:05:55;0.60;99.90
5796;DHT22;2924;51.458;7.046;2023-04-06T01:08:24;0.50;99.90
5796;DHT22;2924;51.458;7.046;2023-04-06T01:10:49;0.50;99.90
5796;DHT22;2924;51.458;7.046;2023-04-06T01:13:15;0.50;99.90
5796;DHT22;2924;51.458;7.046;2023-04-06T01:15:41;0.60;99.90
5796;DHT22;2924;51.458;7.046;2023-04-06T01:18:08;0.60;99.90
5796;DHT22;2924;51.458;7.046;2023-04-06T01:20:36;0.50;99.90
5796;DHT22;2924;51.458;7.046;2023-04-06T01:23:01;0.50;99.90
5796;DHT22;2924;51.458;7.046;2023-04-06T01:25:27;0.50;99.90
5796;DHT22;2924;51.458;7.046;2023-04-06T01:27:52;0.50;99.90
5796;DHT22;2924;51.458;7.046;2023-04-06T01:30:18;0.60;99.90
5796;DHT22;2924;51.458;7.046;2023-04-06T01:32:44;0.60;99.90
5796;DHT22;2924;51.458;7.046;2023-04-06T01:35:10;0.70;99.90
5796;DHT22;2924;51.458;7.046;2023-04-06T01:37:36;0.70;99.90
5796;DHT22;2924;51.458;7.046;2023-04-06T01:40:02;0.70;99.90
5796;DHT22;2924;51.458;7.046;2023-04-06T01:42:28;0.70;99.90
5796;DHT22;2924;51.458;7.046;2023-04-06T01:44:54;0.70;99.90
5796;DHT22;2924;51.458;7.046;2023-04-06T01:47:19;0.80;99.90
5796;DHT22;2924;51.458;7.046;2023-04-06T01:49:45;0.80;99.90
5796;DHT22;2924;51.458;7.046;2023-04-06T01:52:10;0.80;99.90
5796;DHT22;2924;51.458;7.046;2023-04-06T01:54:36;0.80;99.90
5796;DHT22;2924;51.458;7.046;2023-04-06T01:57:02;0.70;99.90
5796;DHT22;2924;51.458;7.046;2023-04-06T01:59:27;0.70;99.90
5796;DHT22;2924;51.458;7.046;2023-04-06T02:01:53;0.90;99.90
5796;DHT22;2924;51.458;7.046;2023-04-06T02:04:18;0.90;99.90
5796;DHT22;2924;51.458;7.046;2023-04-06T02:06:44;0.80;99.90
5796;DHT22;2924;51.458;7.046;2023-04-06T02:09:09;0.70;99.90
5796;DHT22;2924;51.458;7.046;2023-04-06T02:11:35;0.70;99.90
5796;DHT22;2924;51.458;7.046;2023-04-06T02:14:00;0.70;99.90
5796;DHT22;2924;51.458;7.046;2023-04-06T02:16:26;0.90;99.90
5796;DHT22;2924;51.458;7.046;2023-04-06T02:18:52;0.90;99.90
5796;DHT22;2924;51.458;7.046;2023-04-06T02:21:17;1.00;99.90
5796;DHT22;2924;51.458;7.046;2023-04-06T02:23:46;0.90;99.90
5796;DHT22;2924;51.458;7.046;2023-04-06T02:26:12;0.90;99.90
5796;DHT22;2924;51.458;7.046;2023-04-06T02:28:37;0.90;99.90
5796;DHT22;2924;51.458;7.046;2023-04-06T02:31:03;1.10;99.90
5796;DHT22;2924;51.458;7.046;2023-04-06T02:33:28;1.30;99.90
5796;DHT22;2924;51.458;7.046;2023-04-06T02:35:54;1.20;99.90
5796;DHT22;2924;51.458;7.046;2023-04-06T02:38:20;1.20;99.90
5796;DHT22;2924;51.458;7.046;2023-04-06T02:40:45;1.10;99.90
5796;DHT22;2924;51.458;7.046;2023-04-06T02:43:11;1.10;99.90
5796;DHT22;2924;51.458;7.046;2023-04-06T02:45:36;1.20;99.90
5796;DHT22;2924;51.458;7.046;2023-04-06T02:48:02;1.40;99.90
5796;DHT22;2924;51.458;7.046;2023-04-06T02:50:28;1.60;99.90
5796;DHT22;2924;51.458;7.046;2023-04-06T02:52:53;1.70;99.90
5796;DHT22;2924;51.458;7.046;2023-04-06T02:55:19;1.80;99.90
5796;DHT22;2924;51.458;7.046;2023-04-06T02:57:45;1.60;99.90
5796;DHT22;2924;51.458;7.046;2023-04-06T03:00:11;1.70;99.90
5796;DHT22;2924;51.458;7.046;2023-04-06T03:02:37;1.60;99.90
5796;DHT22;2924;51.458;7.046;2023-04-06T03:05:03;1.40;99.90
5796;DHT22;2924;51.458;7.046;2023-04-06T03:07:28;1.30;99.90
5796;DHT22;2924;51.458;7.046;2023-04-06T03:09:54;1.30;99.90
5796;DHT22;2924;51.458;7.046;2023-04-06T03:12:20;1.30;99.90
5796;DHT22;2924;51.458;7.046;2023-04-06T03:14:45;1.30;99.90
5796;DHT22;2924;51.458;7.046;2023-04-06T03:17:11;1.30;99.90
5796;DHT22;2924;51.458;7.046;2023-04-06T03:19:37;1.20;99.90
5796;DHT22;2924;51.458;7.046;2023-04-06T03:22:02;1.10;99.90
5796;DHT22;2924;51.458;7.046;2023-04-06T03:24:28;1.10;99.90
5796;DHT22;2924;51.458;7.046;2023-04-06T03:26:53;1.00;99.90
5796;DHT22;2924;51.458;7.046;2023-04-06T03:29:19;1.10;99.90
5796;DHT22;2924;51.458;7.046;2023-04-06T03:31:44;1.10;99.90
5796;DHT22;2924;51.458;7.046;2023-04-06T03:34:10;1.10;99.90
5796;DHT22;2924;51.458;7.046;2023-04-06T03:36:36;1.10;99.90
5796;DHT22;2924;51.458;7.046;2023-04-06T03:39:01;1.00;99.90
5796;DHT22;2924;51.458;7.046;2023-04-06T03:41:27;0.90;99.90
5796;DHT22;2924;51.458;7.046;2023-04-06T03:43:52;0.90;99.90
5796;DHT22;2924;51.458;7.046;2023-04-06T03:46:18;1.10;99.90
5796;DHT22;2924;51.458;7.046;2023-04-06T03:48:47;1.10;99.90
5796;DHT22;2924;51.458;7.046;2023-04-06T03:51:13;1.00;99.90
5796;DHT22;2924;51.458;7.046;2023-04-06T03:53:38;1.00;99.90
5796;DHT22;2924;51.458;7.046;2023-04-06T03:56:04;1.00;99.90
5796;DHT22;2924;51.458;7.046;2023-04-06T03:58:30;1.00;99.90
5796;DHT22;2924;51.458;7.046;2023-04-06T04:00:56;1.00;99.90
5796;DHT22;2924;51.458;7.046;2023-04-06T04:03:21;1.00;99.90
5796;DHT22;2924;51.458;7.046;2023-04-06T04:05:49;1.00;99.90
5796;DHT22;2924;51.458;7.046;2023-04-06T04:08:15;0.90;99.90
5796;DHT22;2924;51.458;7.046;2023-04-06T04:10:41;0.90;99.90
5796;DHT22;2924;51.458;7.046;2023-04-06T04:13:06;0.90;99.90
5796;DHT22;2924;51.458;7.046;2023-04-06T04:15:32;0.80;99.90
5796;DHT22;2924;51.458;7.046;2023-04-06T04:17:57;0.90;99.90
5796;DHT22;2924;51.458;7.046;2023-04-06T04:20:23;0.90;99.90
5796;DHT22;2924;51.458;7.046;2023-04-06T04:22:49;0.90;99.90
5796;DHT22;2924;51.458;7.046;2023-04-06T04:25:14;0.90;99.90
5796;DHT22;2924;51.458;7.046;2023-04-06T04:27:40;0.90;99.90
5796;DHT22;2924;51.458;7.046;2023-04-06T04:30:06;0.80;99.90
5796;DHT22;2924;51.458;7.046;2023-04-06T04:32:32;0.80;99.90
5796;DHT22;2924;51.458;7.046;2023-04-06T04:34:57;0.90;99.90
5796;DHT22;2924;51.458;7.046;2023-04-06T04:37:23;1.00;99.90
5796;DHT22;2924;51.458;7.046;2023-04-06T04:39:48;1.00;99.90
5796;DHT22;2924;51.458;7.046;2023-04-06T04:42:14;1.00;99.90
5796;DHT22;2924;51.458;7.046;2023-04-06T04:44:39;1.00;99.90
5796;DHT22;2924;51.458;7.046;2023-04-06T04:47:05;1.00;99.90
5796;DHT22;2924;51.458;7.046;2023-04-06T04:49:30;1.10;99.90
5796;DHT22;2924;51.458;7.046;2023-04-06T04:51:56;1.30;99.90
5796;DHT22;2924;51.458;7.046;2023-04-06T04:54:22;1.30;99.90
5796;DHT22;2924;51.458;7.046;2023-04-06T04:56:48;1.30;99.90
5796;DHT22;2924;51.458;7.046;2023-04-06T04:59:13;1.20;99.90
5796;DHT22;2924;51.458;7.046;2023-04-06T05:01:39;1.30;99.90
5796;DHT22;2924;51.458;7.046;2023-04-06T05:04:05;1.30;99.90
5796;DHT22;2924;51.458;7.046;2023-04-06T05:06:30;1.50;99.90
5796;DHT22;2924;51.458;7.046;2023-04-06T05:08:56;1.50;99.90
5796;DHT22;2924;51.458;7.046;2023-04-06T05:11:21;1.50;99.90
5796;DHT22;2924;51.458;7.046;2023-04-06T05:13:47;1.40;99.90
5796;DHT22;2924;51.458;7.046;2023-04-06T05:16:13;1.40;99.90
5796;DHT22;2924;51.458;7.046;2023-04-06T05:18:38;1.50;99.90
5796;DHT22;2924;51.458;7.046;2023-04-06T05:21:04;1.60;99.90
5796;DHT22;2924;51.458;7.046;2023-04-06T05:23:29;1.80;99.90
5796;DHT22;2924;51.458;7.046;2023-04-06T05:25:55;1.80;99.90
5796;DHT22;2924;51.458;7.046;2023-04-06T05:28:21;1.80;99.90
5796;DHT22;2924;51.458;7.046;2023-04-06T05:30:47;1.80;99.90
5796;DHT22;2924;51.458;7.046;2023-04-06T05:33:13;1.80;99.90
5796;DHT22;2924;51.458;7.046;2023-04-06T05:35:38;1.90;99.90
5796;DHT22;2924;51.458;7.046;2023-04-06T05:38:08;2.00;99.90
5796;DHT22;2924;51.458;7.046;2023-04-06T05:40:34;2.20;99.90
5796;DHT22;2924;51.458;7.046;2023-04-06T05:42:59;2.30;99.90
5796;DHT22;2924;51.458;7.046;2023-04-06T05:45:25;2.30;99.90
5796;DHT22;2924;51.458;7.046;2023-04-06T05:47:51;2.30;99.90
5796;DHT22;2924;51.458;7.046;2023-04-06T05:50:17;2.40;99.90
5796;DHT22;2924;51.458;7.046;2023-04-06T05:52:42;2.50;99.90
5796;DHT22;2924;51.458;7.046;2023-04-06T05:55:11;2.60;99.90
5796;DHT22;2924;51.458;7.046;2023-04-06T05:57:36;2.70;99.90
5796;DHT22;2924;51.458;7.046;2023-04-06T06:00:02;2.80;99.90
5796;DHT22;2924;51.458;7.046;2023-04-06T06:02:30;3.00;99.90
5796;DHT22;2924;51.458;7.046;2023-04-06T06:04:56;3.10;99.90
5796;DHT22;2924;51.458;7.046;2023-04-06T06:07:22;3.30;99.90
5796;DHT22;2924;51.458;7.046;2023-04-06T06:09:48;3.50;99.90
5796;DHT22;2924;51.458;7.046;2023-04-06T06:12:13;3.70;99.90
5796;DHT22;2924;51.458;7.046;2023-04-06T06:14:39;3.80;99.90
5796;DHT22;2924;51.458;7.046;2023-04-06T06:17:05;4.00;99.90
5796;DHT22;2924;51.458;7.046;2023-04-06T06:19:30;4.10;99.90
5796;DHT22;2924;51.458;7.046;2023-04-06T06:21:56;4.20;99.90
5796;DHT22;2924;51.458;7.046;2023-04-06T06:24:22;4.50;99.90
5796;DHT22;2924;51.458;7.046;2023-04-06T06:26:47;4.90;99.90
5796;DHT22;2924;51.458;7.046;2023-04-06T06:29:14;5.20;99.90
5796;DHT22;2924;51.458;7.046;2023-04-06T06:31:40;5.60;99.90
5796;DHT22;2924;51.458;7.046;2023-04-06T06:34:05;6.10;99.90
5796;DHT22;2924;51.458;7.046;2023-04-06T06:36:32;6.50;99.90
5796;DHT22;2924;51.458;7.046;2023-04-06T06:38:58;6.80;99.90
5796;DHT22;2924;51.458;7.046;2023-04-06T06:41:24;7.00;99.90
5796;DHT22;2924;51.458;7.046;2023-04-06T06:43:52;7.30;99.90
5796;DHT22;2924;51.458;7.046;2023-04-06T06:46:18;7.80;99.90
5796;DHT22;2924;51.458;7.046;2023-04-06T06:48:43;8.20;99.90
5796;DHT22;2924;51.458;7.046;2023-04-06T06:51:09;8.50;99.10
5796;DHT22;2924;51.458;7.046;2023-04-06T06:53:36;8.90;98.50
5796;DHT22;2924;51.458;7.046;2023-04-06T06:56:02;9.20;97.80
5796;DHT22;2924;51.458;7.046;2023-04-06T06:58:28;9.30;96.70
5796;DHT22;2924;51.458;7.046;2023-04-06T07:00:59;9.30;96.80
5796;DHT22;2924;51.458;7.046;2023-04-06T07:03:25;9.20;96.70
5796;DHT22;2924;51.458;7.046;2023-04-06T07:05:51;9.30;96.40
5796;DHT22;2924;51.458;7.046;2023-04-06T07:08:23;9.20;96.30
5796;DHT22;2924;51.458;7.046;2023-04-06T07:10:53;9.60;96.20
5796;DHT22;2924;51.458;7.046;2023-04-06T07:13:19;9.90;95.50
5796;DHT22;2924;51.458;7.046;2023-04-06T07:15:51;10.00;94.80
5796;DHT22;2924;51.458;7.046;2023-04-06T07:18:18;10.00;94.70
5796;DHT22;2924;51.458;7.046;2023-04-06T07:20:44;10.00;94.90
5796;DHT22;2924;51.458;7.046;2023-04-06T07:23:09;10.20;94.90
5796;DHT22;2924;51.458;7.046;2023-04-06T07:25:35;10.60;94.20
5796;DHT22;2924;51.458;7.046;2023-04-06T07:28:02;10.60;93.80
5796;DHT22;2924;51.458;7.046;2023-04-06T07:30:28;10.60;93.90
5796;DHT22;2924;51.458;7.046;2023-04-06T07:32:54;10.80;93.50
5796;DHT22;2924;51.458;7.046;2023-04-06T07:35:24;10.90;93.40
5796;DHT22;2924;51.458;7.046;2023-04-06T07:37:51;11.10;93.00
5796;DHT22;2924;51.458;7.046;2023-04-06T07:40:17;11.20;92.80
5796;DHT22;2924;51.458;7.046;2023-04-06T07:42:43;10.80;93.00
5796;DHT22;2924;51.458;7.046;2023-04-06T07:45:09;11.00;92.70
5796;DHT22;2924;51.458;7.046;2023-04-06T07:47:34;11.20;92.20
5796;DHT22;2924;51.458;7.046;2023-04-06T07:50:00;11.40;92.40
5796;DHT22;2924;51.458;7.046;2023-04-06T07:52:26;11.80;91.80
5796;DHT22;2924;51.458;7.046;2023-04-06T07:54:51;12.00;91.40
5796;DHT22;2924;51.458;7.046;2023-04-06T07:57:18;12.40;91.20
5796;DHT22;2924;51.458;7.046;2023-04-06T07:59:43;12.70;90.90
5796;DHT22;2924;51.458;7.046;2023-04-06T08:02:09;12.80;90.20
5796;DHT22;2924;51.458;7.046;2023-04-06T08:04:35;13.10;90.30
5796;DHT22;2924;51.458;7.046;2023-04-06T08:07:00;13.60;89.00
5796;DHT22;2924;51.458;7.046;2023-04-06T08:09:26;13.90;88.50
5796;DHT22;2924;51.458;7.046;2023-04-06T08:11:52;14.00;87.50
5796;DHT22;2924;51.458;7.046;2023-04-06T08:14:18;13.30;87.60
5796;DHT22;2924;51.458;7.046;2023-04-06T08:16:43;13.10;88.60
5796;DHT22;2924;51.458;7.046;2023-04-06T08:19:09;13.30;88.10
5796;DHT22;2924;51.458;7.046;2023-04-06T08:21:37;13.20;87.30
5796;DHT22;2924;51.458;7.046;2023-04-06T08:24:03;12.90;87.20
5796;DHT22;2924;51.458;7.046;2023-04-06T08:26:29;12.50;88.80
5796;DHT22;2924;51.458;7.046;2023-04-06T08:28:54;12.60;88.90
5796;DHT22;2924;51.458;7.046;2023-04-06T08:31:20;12.40;88.40
5796;DHT22;2924;51.458;7.046;2023-04-06T08:33:46;12.40;88.80
5796;DHT22;2924;51.458;7.046;2023-04-06T08:36:13;12.50;89.00
5796;DHT22;2924;51.458;7.046;2023-04-06T08:38:40;12.60;89.20
5796;DHT22;2924;51.458;7.046;2023-04-06T08:41:10;12.80;88.70
5796;DHT22;2924;51.458;7.046;2023-04-06T08:43:58;13.00;87.90
5796;DHT22;2924;51.458;7.046;2023-04-06T08:46:24;13.00;86.50
5796;DHT22;2924;51.458;7.046;2023-04-06T08:48:56;12.80;86.60
5796;DHT22;2924;51.458;7.046;2023-04-06T08:51:23;12.90;87.10
5796;DHT22;2924;51.458;7.046;2023-04-06T08:53:52;13.40;86.00
5796;DHT22;2924;51.458;7.046;2023-04-06T08:56:19;13.70;85.60
5796;DHT22;2924;51.458;7.046;2023-04-06T08:58:47;13.90;85.20
5796;DHT22;2924;51.458;7.046;2023-04-06T09:01:14;14.10;85.40
5796;DHT22;2924;51.458;7.046;2023-04-06T09:03:43;14.00;84.60
5796;DHT22;2924;51.458;7.046;2023-04-06T09:06:09;13.90;84.90
5796;DHT22;2924;51.458;7.046;2023-04-06T09:08:39;14.00;85.30
5796;DHT22;2924;51.458;7.046;2023-04-06T09:11:05;14.00;84.70
5796;DHT22;2924;51.458;7.046;2023-04-06T09:13:31;14.10;84.50
5796;DHT22;2924;51.458;7.046;2023-04-06T09:16:04;14.20;84.50
5796;DHT22;2924;51.458;7.046;2023-04-06T09:18:32;14.80;83.80
5796;DHT22;2924;51.458;7.046;2023-04-06T09:21:04;15.00;82.80
5796;DHT22;2924;51.458;7.046;2023-04-06T09:23:30;15.10;82.70
5796;DHT22;2924;51.458;7.046;2023-04-06T09:26:12;15.30;82.20
5796;DHT22;2924;51.458;7.046;2023-04-06T09:31:15;16.60;80.00
5796;DHT22;2924;51.458;7.046;2023-04-06T09:33:43;16.90;78.10
5796;DHT22;2924;51.458;7.046;2023-04-06T09:36:10;16.80;76.40
5796;DHT22;2924;51.458;7.046;2023-04-06T09:38:39;16.60;76.90
5796;DHT22;2924;51.458;7.046;2023-04-06T09:41:24;16.60;76.90
5796;DHT22;2924;51.458;7.046;2023-04-06T09:44:13;17.60;75.50
5796;DHT22;2924;51.458;7.046;2023-04-06T09:46:44;18.50;74.20
5796;DHT22;2924;51.458;7.046;2023-04-06T09:49:11;18.30;73.60
5796;DHT22;2924;51.458;7.046;2023-04-06T09:51:44;17.90;73.70
5796;DHT22;2924;51.458;7.046;2023-04-06T09:54:11;17.70;73.90
5796;DHT22;2924;51.458;7.046;2023-04-06T09:57:03;16.90;74.00
5796;DHT22;2924;51.458;7.046;2023-04-06T09:59:53;16.10;75.50
5796;DHT22;2924;51.458;7.046;2023-04-06T10:07:48;15.50;76.80
5796;DHT22;2924;51.458;7.046;2023-04-06T10:10:16;16.20;76.60
5796;DHT22;2924;51.458;7.046;2023-04-06T10:12:42;16.70;75.60
5796;DHT22;2924;51.458;7.046;2023-04-06T10:15:09;16.60;75.10
5796;DHT22;2924;51.458;7.046;2023-04-06T10:17:35;16.20;75.80
5796;DHT22;2924;51.458;7.046;2023-04-06T10:20:13;16.20;75.50
5796;DHT22;2924;51.458;7.046;2023-04-06T10:22:44;16.30;74.90
5796;DHT22;2924;51.458;7.046;2023-04-06T10:25:16;16.10;75.60
5796;DHT22;2924;51.458;7.046;2023-04-06T10:27:41;16.20;76.30
5796;DHT22;2924;51.458;7.046;2023-04-06T10:30:07;16.60;75.40
5796;DHT22;2924;51.458;7.046;2023-04-06T10:32:37;16.60;74.70
5796;DHT22;2924;51.458;7.046;2023-04-06T10:35:09;16.50;74.90
5796;DHT22;2924;51.458;7.046;2023-04-06T10:37:51;15.70;76.20
5796;DHT22;2924;51.458;7.046;2023-04-06T10:40:22;15.50;76.80
5796;DHT22;2924;51.458;7.046;2023-04-06T10:42:49;15.70;76.50
5796;DHT22;2924;51.458;7.046;2023-04-06T10:45:22;15.70;76.50
5796;DHT22;2924;51.458;7.046;2023-04-06T10:47:48;15.50;76.90
5796;DHT22;2924;51.458;7.046;2023-04-06T10:50:15;15.70;76.80
5796;DHT22;2924;51.458;7.046;2023-04-06T10:52:42;16.40;77.10
5796;DHT22;2924;51.458;7.046;2023-04-06T10:55:09;16.90;76.20
5796;DHT22;2924;51.458;7.046;2023-04-06T10:57:37;17.50;75.50
5796;DHT22;2924;51.458;7.046;2023-04-06T11:00:05;18.00;74.70
5796;DHT22;2924;51.458;7.046;2023-04-06T11:02:31;18.20;74.20
5796;DHT22;2924;51.458;7.046;2023-04-06T11:04:58;18.20;74.50
5796;DHT22;2924;51.458;7.046;2023-04-06T11:07:27;18.10;74.80
5796;DHT22;2924;51.458;7.046;2023-04-06T11:09:55;17.40;74.70
5796;DHT22;2924;51.458;7.046;2023-04-06T11:12:25;16.60;76.00
5796;DHT22;2924;51.458;7.046;2023-04-06T11:14:58;16.70;76.20
5796;DHT22;2924;51.458;7.046;2023-04-06T11:17:36;17.10;75.70
5796;DHT22;2924;51.458;7.046;2023-04-06T11:20:04;17.40;75.60
5796;DHT22;2924;51.458;7.046;2023-04-06T11:22:31;17.30;75.90
5796;DHT22;2924;51.458;7.046;2023-04-06T11:25:06;17.10;76.40
5796;DHT22;2924;51.458;7.046;2023-04-06T11:27:35;16.70;76.50
5796;DHT22;2924;51.458;7.046;2023-04-06T11:30:02;15.90;77.10
5796;DHT22;2924;51.458;7.046;2023-04-06T11:32:28;15.80;78.10
5796;DHT22;2924;51.458;7.046;2023-04-06T11:34:53;16.00;77.80
5796;DHT22;2924;51.458;7.046;2023-04-06T11:37:19;15.60;77.60
5796;DHT22;2924;51.458;7.046;2023-04-06T11:39:49;15.30;78.00
5796;DHT22;2924;51.458;7.046;2023-04-06T11:42:29;15.60;78.50
5796;DHT22;2924;51.458;7.046;2023-04-06T11:44:58;15.90;77.90
5796;DHT22;2924;51.458;7.046;2023-04-06T11:47:28;16.20;77.80
5796;DHT22;2924;51.458;7.046;2023-04-06T11:49:54;16.60;77.30
5796;DHT22;2924;51.458;7.046;2023-04-06T11:52:25;16.60;75.90
5796;DHT22;2924;51.458;7.046;2023-04-06T11:54:52;16.50;76.60
5796;DHT22;2924;51.458;7.046;2023-04-06T11:57:19;16.60;76.10
5796;DHT22;2924;51.458;7.046;2023-04-06T11:59:46;16.10;76.10
5796;DHT22;2924;51.458;7.046;2023-04-06T12:02:11;15.70;76.70
5796;DHT22;2924;51.458;7.046;2023-04-06T12:04:37;15.40;76.50
5796;DHT22;2924;51.458;7.046;2023-04-06T12:07:04;15.00;78.10
5796;DHT22;2924;51.458;7.046;2023-04-06T12:09:30;14.90;78.60
5796;DHT22;2924;51.458;7.046;2023-04-06T12:11:56;15.10;78.40
5796;DHT22;2924;51.458;7.046;2023-04-06T12:14:22;15.00;78.60
5796;DHT22;2924;51.458;7.046;2023-04-06T12:16:48;15.00;79.40
5796;DHT22;2924;51.458;7.046;2023-04-06T12:19:13;15.30;78.80
5796;DHT22;2924;51.458;7.046;2023-04-06T12:21:39;15.40;79.20
5796;DHT22;2924;51.458;7.046;2023-04-06T12:24:05;15.40;78.90
5796;DHT22;2924;51.458;7.046;2023-04-06T12:26:31;15.40;79.10
5796;DHT22;2924;51.458;7.046;2023-04-06T12:28:58;15.40;78.70
5796;DHT22;2924;51.458;7.046;2023-04-06T12:31:30;15.30;79.60
5796;DHT22;2924;51.458;7.046;2023-04-06T12:33:55;14.80;79.60
5796;DHT22;2924;51.458;7.046;2023-04-06T12:36:21;14.40;81.10
5796;DHT22;2924;51.458;7.046;2023-04-06T12:38:47;14.20;82.00
5796;DHT22;2924;51.458;7.046;2023-04-06T12:41:13;14.40;82.50
5796;DHT22;2924;51.458;7.046;2023-04-06T12:43:41;14.80;81.70
5796;DHT22;2924;51.458;7.046;2023-04-06T12:46:07;15.00;81.50
5796;DHT22;2924;51.458;7.046;2023-04-06T12:48:32;14.40;82.70
5796;DHT22;2924;51.458;7.046;2023-04-06T12:50:59;13.90;83.80
5796;DHT22;2924;51.458;7.046;2023-04-06T12:53:25;13.60;84.90
5796;DHT22;2924;51.458;7.046;2023-04-06T12:55:52;13.50;84.80
5796;DHT22;2924;51.458;7.046;2023-04-06T12:58:18;13.50;85.10
5796;DHT22;2924;51.458;7.046;2023-04-06T13:00:44;13.50;85.90
5796;DHT22;2924;51.458;7.046;2023-04-06T13:03:10;13.50;86.20
5796;DHT22;2924;51.458;7.046;2023-04-06T13:05:37;13.60;86.60
5796;DHT22;2924;51.458;7.046;2023-04-06T13:08:08;13.60;86.90
5796;DHT22;2924;51.458;7.046;2023-04-06T13:10:34;13.70;87.50
5796;DHT22;2924;51.458;7.046;2023-04-06T13:12:59;13.80;87.50
5796;DHT22;2924;51.458;7.046;2023-04-06T13:15:25;13.90;87.40
5796;DHT22;2924;51.458;7.046;2023-04-06T13:17:51;13.90;87.70
5796;DHT22;2924;51.458;7.046;2023-04-06T13:20:16;14.00;87.60
5796;DHT22;2924;51.458;7.046;2023-04-06T13:22:42;14.20;87.20
5796;DHT22;2924;51.458;7.046;2023-04-06T13:25:07;14.50;86.60
5796;DHT22;2924;51.458;7.046;2023-04-06T13:27:33;14.60;85.70
5796;DHT22;2924;51.458;7.046;2023-04-06T13:30:01;14.10;86.40
5796;DHT22;2924;51.458;7.046;2023-04-06T13:32:27;14.10;87.10
5796;DHT22;2924;51.458;7.046;2023-04-06T13:34:57;13.70;87.50
5796;DHT22;2924;51.458;7.046;2023-04-06T13:37:22;13.60;88.30
5796;DHT22;2924;51.458;7.046;2023-04-06T13:39:48;13.50;88.30
5796;DHT22;2924;51.458;7.046;2023-04-06T13:42:14;13.50;89.50
5796;DHT22;2924;51.458;7.046;2023-04-06T13:44:39;13.60;89.20
5796;DHT22;2924;51.458;7.046;2023-04-06T13:47:05;13.60;90.30
5796;DHT22;2924;51.458;7.046;2023-04-06T13:49:31;13.70;90.00
5796;DHT22;2924;51.458;7.046;2023-04-06T13:51:56;13.60;90.30
5796;DHT22;2924;51.458;7.046;2023-04-06T13:54:22;13.20;90.00
5796;DHT22;2924;51.458;7.046;2023-04-06T13:56:48;12.60;91.20
5796;DHT22;2924;51.458;7.046;2023-04-06T13:59:13;12.20;92.60
5796;DHT22;2924;51.458;7.046;2023-04-06T14:01:39;12.00;93.40
5796;DHT22;2924;51.458;7.046;2023-04-06T14:04:04;12.00;94.50
5796;DHT22;2924;51.458;7.046;2023-04-06T14:06:30;12.00;95.30
5796;DHT22;2924;51.458;7.046;2023-04-06T14:08:56;12.10;96.30
5796;DHT22;2924;51.458;7.046;2023-04-06T14:11:22;12.30;97.00
5796;DHT22;2924;51.458;7.046;2023-04-06T14:13:48;12.50;95.90
5796;DHT22;2924;51.458;7.046;2023-04-06T14:16:13;12.70;94.60
5796;DHT22;2924;51.458;7.046;2023-04-06T14:18:39;12.90;94.10
5796;DHT22;2924;51.458;7.046;2023-04-06T14:21:05;12.90;93.40
5796;DHT22;2924;51.458;7.046;2023-04-06T14:23:31;12.90;93.20
5796;DHT22;2924;51.458;7.046;2023-04-06T14:26:05;13.00;93.30
5796;DHT22;2924;51.458;7.046;2023-04-06T14:28:32;12.80;93.30
5796;DHT22;2924;51.458;7.046;2023-04-06T14:31:09;12.50;94.00
5796;DHT22;2924;51.458;7.046;2023-04-06T14:33:35;12.40;94.60
5796;DHT22;2924;51.458;7.046;2023-04-06T14:36:04;12.30;95.40
5796;DHT22;2924;51.458;7.046;2023-04-06T14:38:34;12.20;96.40
5796;DHT22;2924;51.458;7.046;2023-04-06T14:41:00;12.10;97.30
5796;DHT22;2924;51.458;7.046;2023-04-06T14:43:26;11.90;98.70
5796;DHT22;2924;51.458;7.046;2023-04-06T14:45:53;11.70;99.60
5796;DHT22;2924;51.458;7.046;2023-04-06T14:48:19;11.70;99.90
5796;DHT22;2924;51.458;7.046;2023-04-06T14:50:52;11.70;99.90
5796;DHT22;2924;51.458;7.046;2023-04-06T14:53:19;11.70;99.90
5796;DHT22;2924;51.458;7.046;2023-04-06T14:55:45;11.70;99.90
5796;DHT22;2924;51.458;7.046;2023-04-06T14:58:11;11.40;99.90
5796;DHT22;2924;51.458;7.046;2023-04-06T15:00:38;11.30;99.90
5796;DHT22;2924;51.458;7.046;2023-04-06T15:03:04;11.30;99.90
5796;DHT22;2924;51.458;7.046;2023-04-06T15:05:29;11.30;99.90
5796;DHT22;2924;51.458;7.046;2023-04-06T15:07:56;11.10;99.90
5796;DHT22;2924;51.458;7.046;2023-04-06T15:10:22;11.00;99.90
5796;DHT22;2924;51.458;7.046;2023-04-06T15:12:47;11.00;99.90
5796;DHT22;2924;51.458;7.046;2023-04-06T15:15:13;10.90;99.90
5796;DHT22;2924;51.458;7.046;2023-04-06T15:17:39;10.90;99.90
5796;DHT22;2924;51.458;7.046;2023-04-06T15:20:05;10.90;99.90
5796;DHT22;2924;51.458;7.046;2023-04-06T15:22:31;10.90;99.90
5796;DHT22;2924;51.458;7.046;2023-04-06T15:24:56;10.90;99.90
5796;DHT22;2924;51.458;7.046;2023-04-06T15:27:22;11.00;99.90
5796;DHT22;2924;51.458;7.046;2023-04-06T15:29:47;11.20;99.90
5796;DHT22;2924;51.458;7.046;2023-04-06T15:32:13;11.20;99.90
5796;DHT22;2924;51.458;7.046;2023-04-06T15:34:39;11.20;99.90
5796;DHT22;2924;51.458;7.046;2023-04-06T15:37:05;11.30;99.90
5796;DHT22;2924;51.458;7.046;2023-04-06T15:39:31;11.20;99.90
5796;DHT22;2924;51.458;7.046;2023-04-06T15:41:57;11.10;99.90
5796;DHT22;2924;51.458;7.046;2023-04-06T15:44:23;11.00;99.90
5796;DHT22;2924;51.458;7.046;2023-04-06T15:46:49;10.80;99.90
5796;DHT22;2924;51.458;7.046;2023-04-06T15:49:16;10.70;99.90
5796;DHT22;2924;51.458;7.046;2023-04-06T15:51:41;10.40;99.90
5796;DHT22;2924;51.458;7.046;2023-04-06T15:54:07;10.30;99.90
5796;DHT22;2924;51.458;7.046;2023-04-06T15:56:33;10.10;99.90
5796;DHT22;2924;51.458;7.046;2023-04-06T15:58:58;9.90;99.90
5796;DHT22;2924;51.458;7.046;2023-04-06T16:01:24;9.70;99.90
5796;DHT22;2924;51.458;7.046;2023-04-06T16:03:50;9.60;99.90
5796;DHT22;2924;51.458;7.046;2023-04-06T16:06:16;9.40;99.90
5796;DHT22;2924;51.458;7.046;2023-04-06T16:08:41;9.30;99.90
5796;DHT22;2924;51.458;7.046;2023-04-06T16:11:08;9.20;99.90
5796;DHT22;2924;51.458;7.046;2023-04-06T16:13:35;9.00;99.90